Time;durP1;ratioP1;P1;durP2;ratioP2;P2;SDS_P1;SDS_P2;PMS_P1;PMS_P2;Temp;Humidity;BMP_temperature;BMP_pressure;BME280_temperature;BME280_humidity;BME280_pressure;Samples;Min_cycle;Max_cycle;Signal;HPM_P1;HPM_P2
2023/02/03 00:01:22;;;;;;;6.03;2.67;;;;;;;7.07;nan;101742.94;5001365;28;20038;-83
2023/02/03 00:03:47;;;;;;;6.82;2.92;;;;;;;7.05;nan;101744.81;5015340;28;20387;-82
2023/02/03 00:06:13;;;;;;;6.97;3.25;;;;;;;7.06;nan;101746.53;5017031;28;20113;-82
2023/02/03 00:08:38;;;;;;;5.30;2.78;;;;;;;7.09;nan;101758.63;5016217;28;20026;-83
2023/02/03 00:11:04;;;;;;;6.95;3.10;;;;;;;7.09;nan;101748.13;5008568;28;20109;-82
2023/02/03 00:13:29;;;;;;;5.78;2.88;;;;;;;7.07;nan;101745.56;4989114;28;20035;-83
2023/02/03 00:15:55;;;;;;;5.50;2.70;;;;;;;7.06;nan;101737.81;4989326;28;20491;-83
2023/02/03 00:18:20;;;;;;;7.05;2.90;;;;;;;7.06;nan;101740.44;5008786;28;20042;-82
2023/02/03 00:20:46;;;;;;;6.22;2.50;;;;;;;7.06;nan;101735.19;5016524;28;20481;-82
2023/02/03 00:23:11;;;;;;;6.07;2.70;;;;;;;7.07;nan;101742.94;5016492;28;20409;-82
2023/02/03 00:25:45;;;;;;;6.45;2.83;;;;;;;7.09;nan;101742.84;5007961;28;20062;-82
2023/02/03 00:28:10;;;;;;;6.32;2.83;;;;;;;7.11;nan;101739.19;5016681;28;20060;-82
2023/02/03 00:30:36;;;;;;;8.00;3.60;;;;;;;7.19;nan;101741.31;5007360;28;20056;-81
2023/02/03 00:33:02;;;;;;;7.22;3.63;;;;;;;7.21;nan;101744.69;5013968;28;20038;-83
2023/02/03 00:35:28;;;;;;;5.28;3.38;;;;;;;7.28;nan;101737.25;5002571;28;20121;-82
2023/02/03 00:37:54;;;;;;;6.78;3.28;;;;;;;7.30;nan;101730.09;4995829;28;20114;-83
2023/02/03 00:40:21;;;;;;;6.72;3.55;;;;;;;7.34;nan;101726.28;4989210;28;20042;-82
2023/02/03 00:42:47;;;;;;;8.75;3.28;;;;;;;7.37;nan;101718.22;4992355;28;20093;-82
2023/02/03 00:45:12;;;;;;;5.93;3.45;;;;;;;7.44;nan;101722.97;4993706;28;20053;-82
2023/02/03 00:47:37;;;;;;;5.80;3.30;;;;;;;7.45;nan;101718.53;4989642;28;20034;-82
2023/02/03 00:50:04;;;;;;;6.22;3.15;;;;;;;7.50;nan;101718.25;4992060;28;20113;-83
2023/02/03 00:52:29;;;;;;;6.53;3.10;;;;;;;7.53;nan;101723.28;4992039;28;21500;-83
2023/02/03 00:54:55;;;;;;;6.50;3.45;;;;;;;7.55;nan;101718.78;4988332;28;20053;-83
2023/02/03 00:57:20;;;;;;;7.70;3.05;;;;;;;7.56;nan;101715.22;4990017;28;20038;-83
2023/02/03 00:59:45;;;;;;;11.25;4.28;;;;;;;7.54;nan;101727.63;4992084;28;20379;-82
2023/02/03 01:02:11;;;;;;;8.93;3.70;;;;;;;7.56;nan;101720.47;4992009;28;20038;-84
2023/02/03 01:04:36;;;;;;;7.40;4.25;;;;;;;7.56;nan;101726.56;4989626;28;20031;-83
2023/02/03 01:07:01;;;;;;;9.73;4.70;;;;;;;7.50;nan;101742.75;4995716;28;20355;-82
2023/02/03 01:09:26;;;;;;;8.73;4.68;;;;;;;7.52;nan;101732.97;4992674;28;20073;-82
2023/02/03 01:11:52;;;;;;;8.45;4.85;;;;;;;7.57;nan;101745.84;5009070;28;20094;-83
2023/02/03 01:14:17;;;;;;;10.38;4.82;;;;;;;7.57;nan;101735.31;4991833;28;20581;-83
2023/02/03 01:16:42;;;;;;;7.35;4.78;;;;;;;7.62;nan;101727.94;4993339;28;20122;-83
2023/02/03 01:19:08;;;;;;;8.82;4.32;;;;;;;7.59;nan;101721.09;4989865;28;20054;-83
2023/02/03 01:21:35;;;;;;;7.38;4.07;;;;;;;7.56;nan;101726.56;5006843;28;20054;-82
2023/02/03 01:24:00;;;;;;;7.95;3.88;;;;;;;7.53;nan;101710.13;4990973;28;20073;-83
2023/02/03 01:26:25;;;;;;;5.78;3.60;;;;;;;7.53;nan;101697.84;4997952;28;20034;-82
2023/02/03 01:28:53;;;;;;;8.40;4.25;;;;;;;7.48;nan;101680.66;4993751;28;20613;-82
2023/02/03 01:31:21;;;;;;;5.85;3.40;;;;;;;7.46;nan;101678.13;4989770;28;20042;-83
2023/02/03 01:33:47;;;;;;;8.73;4.28;;;;;;;7.39;nan;101661.91;4993888;28;20133;-82
2023/02/03 01:36:14;;;;;;;7.00;3.60;;;;;;;7.41;nan;101651.28;4990497;28;20121;-83
2023/02/03 01:38:40;;;;;;;7.13;3.45;;;;;;;7.37;nan;101647.19;4989365;28;20034;-83
2023/02/03 01:41:10;;;;;;;6.15;2.90;;;;;;;7.32;nan;101657.19;4986502;28;20513;-83
2023/02/03 01:43:41;;;;;;;4.35;2.85;;;;;;;7.33;nan;101657.06;4994876;28;20038;-83
2023/02/03 01:46:26;;;;;;;;;;;;;;;7.31;nan;101671.25;4987888;28;20062;-83
2023/02/03 01:48:55;;;;;;;5.43;3.15;;;;;;;7.31;nan;101666.00;4992083;28;20313;-84
2023/02/03 01:51:21;;;;;;;5.05;3.33;;;;;;;7.31;nan;101661.56;4993838;28;20038;-83
2023/02/03 01:53:49;;;;;;;6.35;3.10;;;;;;;7.30;nan;101645.91;4989618;28;20039;-83
2023/02/03 01:56:15;;;;;;;7.05;3.45;;;;;;;7.30;nan;101630.97;4992558;28;20044;-83
2023/02/03 01:58:42;;;;;;;5.43;3.53;;;;;;;7.27;nan;101662.75;4990570;28;20035;-83
2023/02/03 02:01:07;;;;;;;5.75;3.10;;;;;;;7.23;nan;101661.25;4992878;28;21519;-83
2023/02/03 02:03:49;;;;;;;4.32;2.58;;;;;;;7.19;nan;101647.44;4987638;28;20038;-83
2023/02/03 02:06:15;;;;;;;3.58;2.50;;;;;;;7.15;nan;101637.22;4992991;28;20030;-85
2023/02/03 02:08:44;;;;;;;5.03;2.40;;;;;;;7.11;nan;101644.50;4988780;28;20117;-83
2023/02/03 02:11:10;;;;;;;5.30;2.25;;;;;;;7.16;nan;101644.19;4990705;28;20037;-83
2023/02/03 02:13:36;;;;;;;4.18;2.05;;;;;;;7.23;nan;101643.66;4993044;28;20030;-83
2023/02/03 02:16:09;;;;;;;3.22;2.15;;;;;;;7.22;nan;101651.66;5002052;28;20113;-83
2023/02/03 02:18:51;;;;;;;5.43;2.00;;;;;;;7.24;nan;101657.66;4994027;28;20031;-83
2023/02/03 02:21:55;;;;;;;3.08;2.17;;;;;;;7.22;nan;101649.03;4996812;28;20034;-84
2023/02/03 02:24:49;;;;;;;3.38;2.00;;;;;;;7.24;nan;101647.13;4989368;28;20038;-83
2023/02/03 02:28:02;;;;;;;3.20;1.75;;;;;;;7.20;nan;101641.25;4991421;28;20050;-83
2023/02/03 02:31:05;;;;;;;5.13;2.25;;;;;;;7.15;nan;101645.13;4988235;28;20072;-83
2023/02/03 02:33:39;;;;;;;3.22;1.85;;;;;;;7.09;nan;101656.06;4995314;28;20516;-84
2023/02/03 02:36:26;;;;;;;4.25;2.00;;;;;;;7.06;nan;101659.75;5005522;28;20288;-83
2023/02/03 02:39:04;;;;;;;3.97;1.80;;;;;;;7.02;nan;101645.09;4994456;28;20030;-83
2023/02/03 02:41:44;;;;;;;4.95;2.00;;;;;;;6.95;nan;101635.94;4986440;28;20027;-83
2023/02/03 02:44:24;;;;;;;3.83;2.10;;;;;;;6.92;nan;101642.25;4987812;28;20043;-83
2023/02/03 02:47:01;;;;;;;3.33;2.05;;;;;;;6.90;nan;101636.22;4991058;28;20308;-83
2023/02/03 02:49:34;;;;;;;4.32;2.67;;;;;;;6.89;nan;101638.94;4991110;28;20038;-82
2023/02/03 02:52:04;;;;;;;6.97;3.80;;;;;;;6.89;nan;101646.84;4989780;28;20031;-83
2023/02/03 02:54:32;;;;;;;4.60;3.42;;;;;;;6.86;nan;101652.31;4983540;28;20488;-83
2023/02/03 02:57:02;;;;;;;6.32;3.17;;;;;;;6.85;nan;101655.88;4989674;28;20031;-84
2023/02/03 02:59:27;;;;;;;5.28;2.90;;;;;;;6.84;nan;101670.81;4984725;28;20529;-82
2023/02/03 03:01:52;;;;;;;4.63;2.92;;;;;;;6.85;nan;101661.97;4990454;28;20031;-83
2023/02/03 03:04:22;;;;;;;4.43;2.33;;;;;;;6.82;nan;101664.81;4994921;28;20038;-83
2023/02/03 03:06:55;;;;;;;4.03;2.40;;;;;;;6.83;nan;101669.13;4997071;28;20102;-83
2023/02/03 03:09:34;;;;;;;4.63;2.22;;;;;;;6.81;nan;101677.09;5006830;28;20452;-83
2023/02/03 03:12:06;;;;;;;5.90;3.15;;;;;;;6.81;nan;101681.53;4991696;28;20034;-83
2023/02/03 03:14:34;;;;;;;5.45;2.88;;;;;;;6.81;nan;101692.03;5001779;28;20054;-84
2023/02/03 03:17:04;;;;;;;5.60;3.22;;;;;;;6.81;nan;101690.25;5007039;28;20895;-85
2023/02/03 03:19:45;;;;;;;6.18;3.40;;;;;;;6.79;nan;101700.03;4993756;28;20038;-83
2023/02/03 03:22:14;;;;;;;7.03;3.50;;;;;;;6.80;nan;101706.13;4988489;28;20502;-82
2023/02/03 03:24:49;;;;;;;6.03;4.40;;;;;;;6.79;nan;101710.56;4991759;28;20058;-83
2023/02/03 03:27:20;;;;;;;5.03;3.40;;;;;;;6.78;nan;101722.00;4994714;28;20034;-83
2023/02/03 03:29:52;;;;;;;7.55;3.60;;;;;;;6.78;nan;101715.91;5001366;28;20035;-82
2023/02/03 03:32:18;;;;;;;4.65;2.63;;;;;;;6.75;nan;101718.72;4984043;28;20034;-83
2023/02/03 03:34:43;;;;;;;4.65;2.33;;;;;;;6.73;nan;101704.84;5009884;28;20038;-83
2023/02/03 03:37:23;;;;;;;3.83;2.33;;;;;;;6.70;nan;101715.56;4994896;28;20498;-83
2023/02/03 03:40:09;;;;;;;2.80;2.00;;;;;;;6.66;nan;101712.25;4990982;28;20034;-83
2023/02/03 03:42:49;;;;;;;4.10;2.30;;;;;;;6.67;nan;101700.81;4989475;28;20133;-83
2023/02/03 03:45:37;;;;;;;5.43;2.30;;;;;;;6.62;nan;101696.78;4991411;28;20026;-83
2023/02/03 03:48:15;;;;;;;5.13;2.28;;;;;;;6.56;nan;101701.50;4993552;28;20089;-85
2023/02/03 03:50:50;;;;;;;4.10;1.98;;;;;;;6.55;nan;101688.44;4990760;28;20042;-83
2023/02/03 03:53:17;;;;;;;4.05;2.45;;;;;;;6.53;nan;101674.56;4992754;28;20042;-83
2023/02/03 03:55:46;;;;;;;5.65;3.13;;;;;;;6.51;nan;101674.66;4983479;28;20034;-83
2023/02/03 03:58:25;;;;;;;7.47;4.00;;;;;;;6.48;nan;101680.09;4986637;28;20037;-83
2023/02/03 04:00:54;;;;;;;8.88;5.78;;;;;;;6.47;nan;101672.31;4989478;28;20061;-82
2023/02/03 04:03:23;;;;;;;9.38;6.03;;;;;;;6.47;nan;101667.06;4995036;28;20049;-83
2023/02/03 04:05:49;;;;;;;7.85;5.72;;;;;;;6.47;nan;101664.44;4992819;28;20393;-82
2023/02/03 04:08:15;;;;;;;6.40;3.95;;;;;;;6.46;nan;101674.13;5011056;28;20109;-82
2023/02/03 04:10:42;;;;;;;6.22;3.97;;;;;;;6.47;nan;101667.06;4995404;28;20049;-83
2023/02/03 04:13:09;;;;;;;6.32;3.42;;;;;;;6.47;nan;101653.94;5013223;28;20034;-83
2023/02/03 04:15:34;;;;;;;5.65;3.25;;;;;;;6.48;nan;101663.50;5017151;28;20022;-83
2023/02/03 04:18:00;;;;;;;5.45;2.95;;;;;;;6.46;nan;101671.50;4996488;28;20029;-83
2023/02/03 04:20:30;;;;;;;5.40;2.88;;;;;;;6.45;nan;101669.78;5006895;28;20038;-83
2023/02/03 04:22:56;;;;;;;4.18;2.70;;;;;;;6.44;nan;101668.13;5007493;28;20113;-84
2023/02/03 04:25:22;;;;;;;4.75;2.50;;;;;;;6.47;nan;101648.69;4998602;28;20049;-83
2023/02/03 04:27:47;;;;;;;3.17;2.20;;;;;;;6.46;nan;101645.22;5004099;28;20030;-83
2023/02/03 04:30:13;;;;;;;4.13;2.65;;;;;;;6.46;nan;101647.84;5001347;28;20120;-83
2023/02/03 04:32:39;;;;;;;3.88;2.30;;;;;;;6.46;nan;101647.84;4991061;28;20436;-83
2023/02/03 04:35:07;;;;;;;3.75;2.30;;;;;;;6.46;nan;101658.34;5019987;28;20129;-83
2023/02/03 04:37:32;;;;;;;3.13;2.13;;;;;;;6.49;nan;101662.56;5013885;28;20557;-83
2023/02/03 04:39:58;;;;;;;2.72;2.17;;;;;;;6.52;nan;101665.84;4999924;28;20107;-83
2023/02/03 04:42:23;;;;;;;3.03;2.08;;;;;;;6.54;nan;101671.84;5000968;28;20066;-83
2023/02/03 04:44:50;;;;;;;3.33;2.15;;;;;;;6.53;nan;101675.41;4993900;28;20042;-83
2023/02/03 04:47:15;;;;;;;5.68;2.72;;;;;;;6.57;nan;101674.25;4985050;28;20040;-83
2023/02/03 04:49:41;;;;;;;3.38;2.40;;;;;;;6.54;nan;101677.09;4989605;28;20035;-84
2023/02/03 04:52:06;;;;;;;4.18;2.67;;;;;;;6.53;nan;101672.78;4983519;28;20038;-83
2023/02/03 04:54:33;;;;;;;4.18;2.47;;;;;;;6.52;nan;101665.84;5003343;28;20034;-83
2023/02/03 04:56:58;;;;;;;5.40;2.80;;;;;;;6.49;nan;101662.56;4991320;28;20038;-82
2023/02/03 04:59:23;;;;;;;5.15;2.50;;;;;;;6.50;nan;101672.97;4990763;28;20042;-82
2023/02/03 05:01:48;;;;;;;6.22;2.70;;;;;;;6.53;nan;101666.66;4993813;28;20144;-83
2023/02/03 05:04:14;;;;;;;4.13;2.58;;;;;;;6.51;nan;101664.16;4989122;28;20040;-82
2023/02/03 05:06:39;;;;;;;4.18;2.72;;;;;;;6.51;nan;101671.19;4989815;28;20093;-83
2023/02/03 05:09:07;;;;;;;4.53;2.60;;;;;;;6.53;nan;101670.16;4988262;28;20046;-83
2023/02/03 05:11:33;;;;;;;4.82;2.95;;;;;;;6.53;nan;101657.03;5007674;28;20045;-83
2023/02/03 05:13:58;;;;;;;4.18;2.55;;;;;;;6.52;nan;101665.84;5002020;28;20034;-83
2023/02/03 05:16:24;;;;;;;4.28;2.88;;;;;;;6.51;nan;101666.78;4994742;28;20750;-84
2023/02/03 05:18:49;;;;;;;3.92;2.78;;;;;;;6.54;nan;101678.88;5000015;28;20044;-83
2023/02/03 05:21:14;;;;;;;4.82;2.53;;;;;;;6.53;nan;101677.19;4999458;28;20118;-83
2023/02/03 05:23:41;;;;;;;4.25;2.67;;;;;;;6.54;nan;101677.09;4992723;28;20030;-83
2023/02/03 05:26:06;;;;;;;3.97;2.63;;;;;;;6.53;nan;101675.41;4990378;28;20118;-83
2023/02/03 05:28:32;;;;;;;4.85;2.80;;;;;;;6.50;nan;101675.59;4991875;28;20069;-83
2023/02/03 05:30:58;;;;;;;4.80;2.65;;;;;;;6.51;nan;101673.84;4993146;28;20116;-82
2023/02/03 05:33:23;;;;;;;5.18;2.83;;;;;;;6.52;nan;101681.59;4992529;28;20068;-83
2023/02/03 05:35:49;;;;;;;4.40;2.75;;;;;;;6.55;nan;101684.06;4996021;28;20129;-83
2023/02/03 05:38:14;;;;;;;3.55;2.80;;;;;;;6.57;nan;101676.88;4992757;28;20045;-83
2023/02/03 05:43:23;;;;;;;4.68;3.17;;;;;;;6.58;nan;101675.97;4987357;28;20671;-83
2023/02/03 05:45:48;;;;;;;4.10;2.90;;;;;;;6.59;nan;101653.16;4990412;28;20022;-83
2023/02/03 05:48:14;;;;;;;4.47;3.20;;;;;;;6.57;nan;101652.41;4991506;28;20050;-84
2023/02/03 05:50:39;;;;;;;3.97;2.75;;;;;;;6.54;nan;101653.44;4990002;28;20039;-83
2023/02/03 05:53:05;;;;;;;3.83;2.47;;;;;;;6.51;nan;101655.44;5015253;28;20121;-83
2023/02/03 05:55:31;;;;;;;4.03;2.60;;;;;;;6.53;nan;101650.91;4995179;28;20035;-83
2023/02/03 05:58:00;;;;;;;4.60;2.80;;;;;;;6.56;nan;101661.25;4991185;28;20459;-84
2023/02/03 06:00:27;;;;;;;3.83;2.65;;;;;;;6.59;nan;101655.78;4997755;28;20042;-83
2023/02/03 06:02:58;;;;;;;6.47;3.28;;;;;;;6.67;nan;101656.13;5009635;28;20033;-84
2023/02/03 06:05:24;;;;;;;4.82;3.10;;;;;;;6.66;nan;101645.72;4998221;28;20124;-83
2023/02/03 06:07:50;;;;;;;4.85;3.50;;;;;;;6.65;nan;101644.88;4993891;28;20494;-83
2023/02/03 06:10:16;;;;;;;6.45;3.92;;;;;;;6.62;nan;101621.41;4983739;28;20041;-84
2023/02/03 06:12:42;;;;;;;6.07;3.70;;;;;;;6.58;nan;101627.81;4984492;28;20039;-83
2023/02/03 06:15:08;;;;;;;5.80;4.60;;;;;;;6.54;nan;101626.31;5004378;28;20034;-83
2023/02/03 06:17:34;;;;;;;8.05;4.60;;;;;;;6.56;nan;101637.59;4999634;28;20061;-83
2023/02/03 06:20:01;;;;;;;5.28;3.97;;;;;;;6.54;nan;101632.41;4996932;28;20031;-85
2023/02/03 06:22:26;;;;;;;5.15;3.70;;;;;;;6.52;nan;101634.31;4992710;28;20030;-83
2023/02/03 06:24:52;;;;;;;4.63;3.55;;;;;;;6.51;nan;101621.28;4990251;28;20070;-87
2023/02/03 06:27:18;;;;;;;8.32;3.95;;;;;;;6.48;nan;101630.16;5003095;28;20371;-82
2023/02/03 06:29:43;;;;;;;8.50;4.20;;;;;;;6.46;nan;101625.97;4989107;28;20533;-83
2023/02/03 06:32:09;;;;;;;7.22;3.45;;;;;;;6.41;nan;101628.88;4988751;28;20054;-82
2023/02/03 06:34:34;;;;;;;6.60;3.40;;;;;;;6.41;nan;101631.50;4993621;28;20026;-82
2023/02/03 06:37:02;;;;;;;4.35;3.00;;;;;;;6.40;nan;101621.13;5003508;28;20034;-82
2023/02/03 06:39:27;;;;;;;7.70;3.90;;;;;;;6.40;nan;101607.97;4998594;28;20065;-82
2023/02/03 06:41:54;;;;;;;4.80;3.92;;;;;;;6.37;nan;101614.28;5005921;28;20065;-82
2023/02/03 06:44:20;;;;;;;7.70;4.22;;;;;;;6.32;nan;101609.31;5000847;28;20490;-82
2023/02/03 06:46:45;;;;;;;4.72;2.97;;;;;;;6.30;nan;101616.44;4994245;28;20062;-82
2023/02/03 06:49:11;;;;;;;7.25;3.70;;;;;;;6.31;nan;101627.78;4994176;28;20057;-82
2023/02/03 06:51:36;;;;;;;6.47;3.67;;;;;;;6.29;nan;101627.91;4994923;28;20104;-82
2023/02/03 06:54:05;;;;;;;5.55;3.38;;;;;;;6.29;nan;101637.53;4996602;28;20038;-81
2023/02/03 06:56:30;;;;;;;6.03;3.40;;;;;;;6.29;nan;101627.91;5009232;28;20566;-82
2023/02/03 06:58:57;;;;;;;7.10;3.45;;;;;;;6.31;nan;101631.25;5002395;28;20095;-82
2023/02/03 07:01:24;;;;;;;5.80;3.13;;;;;;;6.33;nan;101649.56;4994019;28;20034;-82
2023/02/03 07:03:50;;;;;;;5.50;3.28;;;;;;;6.33;nan;101660.06;4996085;28;20113;-82
2023/02/03 07:06:15;;;;;;;7.05;3.60;;;;;;;6.34;nan;101653.84;5014104;28;20115;-83
2023/02/03 07:08:40;;;;;;;4.75;3.50;;;;;;;6.41;nan;101655.16;5005352;28;20042;-82
2023/02/03 07:11:05;;;;;;;7.32;3.80;;;;;;;6.41;nan;101651.69;5004137;28;20146;-82
2023/02/03 07:13:31;;;;;;;4.57;3.05;;;;;;;6.46;nan;101663.59;5002925;28;20041;-81
2023/02/03 07:15:56;;;;;;;5.57;2.72;;;;;;;6.49;nan;101655.53;4994963;28;20053;-82
2023/02/03 07:18:25;;;;;;;2.97;2.20;;;;;;;6.59;nan;101669.75;4991643;28;20125;-81
2023/02/03 07:20:51;;;;;;;2.78;2.17;;;;;;;6.68;nan;101667.50;4993436;28;20550;-82
2023/02/03 07:23:17;;;;;;;4.32;2.38;;;;;;;6.74;nan;101678.44;4993507;28;20077;-82
2023/02/03 07:25:42;;;;;;;5.13;2.17;;;;;;;6.81;nan;101677.09;4993296;28;20027;-82
2023/02/03 07:28:07;;;;;;;3.95;2.40;;;;;;;6.87;nan;101685.56;5010455;28;20046;-82
2023/02/03 07:30:33;;;;;;;4.28;2.90;;;;;;;6.87;nan;101677.66;4999223;28;20034;-83
2023/02/03 07:32:58;;;;;;;5.30;2.92;;;;;;;6.92;nan;101684.31;5002574;28;20045;-81
2023/02/03 07:35:24;;;;;;;4.35;2.60;;;;;;;6.93;nan;101682.50;4992895;28;20038;-81
2023/02/03 07:37:50;;;;;;;4.65;2.40;;;;;;;6.98;nan;101680.44;4992899;28;20117;-82
2023/02/03 07:40:15;;;;;;;3.92;2.20;;;;;;;6.98;nan;101696.19;4997420;28;20172;-82
2023/02/03 07:42:42;;;;;;;2.47;2.08;;;;;;;7.03;nan;101702.00;5010831;28;20049;-83
2023/02/03 07:45:08;;;;;;;3.20;2.25;;;;;;;7.08;nan;101704.34;5003437;28;20030;-82
2023/02/03 07:47:34;;;;;;;3.42;2.22;;;;;;;7.08;nan;101691.19;4995145;28;20204;-83
2023/02/03 07:49:59;;;;;;;4.18;1.73;;;;;;;7.09;nan;101690.25;4992348;28;20053;-83
2023/02/03 07:52:24;;;;;;;2.92;2.08;;;;;;;7.11;nan;101689.22;4992041;28;20189;-83
2023/02/03 07:54:50;;;;;;;3.50;2.22;;;;;;;7.11;nan;101677.84;5010125;28;20505;-81
2023/02/03 07:57:18;;;;;;;5.75;3.25;;;;;;;7.14;nan;101683.75;4999802;28;20552;-82
2023/02/03 07:59:43;;;;;;;4.20;3.75;;;;;;;7.12;nan;101679.53;5008947;28;20397;-83
2023/02/03 08:02:10;;;;;;;5.78;3.50;;;;;;;7.14;nan;101690.78;4995977;28;20042;-82
2023/02/03 08:04:36;;;;;;;4.72;3.38;;;;;;;7.16;nan;101687.13;4996025;28;20034;-83
2023/02/03 08:07:02;;;;;;;5.20;3.20;;;;;;;7.16;nan;101688.91;5005614;28;20096;-83
2023/02/03 08:09:28;;;;;;;5.57;3.42;;;;;;;7.18;nan;101694.91;4997315;28;20792;-82
2023/02/03 08:11:53;;;;;;;4.00;3.42;;;;;;;7.19;nan;101704.47;4993946;28;20034;-82
2023/02/03 08:14:18;;;;;;;5.20;3.90;;;;;;;7.22;nan;101706.91;5012105;28;20031;-82
2023/02/03 08:16:45;;;;;;;6.13;3.67;;;;;;;7.21;nan;101692.06;5001945;28;20092;-82
2023/02/03 08:19:10;;;;;;;9.73;4.03;;;;;;;7.22;nan;101693.75;5012719;28;20030;-82
2023/02/03 08:21:43;;;;;;;5.80;3.50;;;;;;;7.22;nan;101702.50;5001300;28;20040;-83
2023/02/03 08:24:08;;;;;;;7.50;3.58;;;;;;;7.26;nan;101704.94;5005585;28;20693;-82
2023/02/03 08:26:37;;;;;;;6.38;3.60;;;;;;;7.27;nan;101710.09;4996955;28;20030;-83
2023/02/03 08:29:02;;;;;;;4.85;3.72;;;;;;;7.32;nan;101708.00;4994766;28;20026;-83
2023/02/03 08:31:28;;;;;;;6.55;4.00;;;;;;;7.36;nan;101691.03;5002032;28;20045;-82
2023/02/03 08:34:00;;;;;;;6.60;3.50;;;;;;;7.36;nan;101696.31;5008201;28;20092;-83
2023/02/03 08:36:25;;;;;;;5.65;3.95;;;;;;;7.36;nan;101701.56;5002316;28;20027;-83
2023/02/03 08:38:50;;;;;;;4.63;3.50;;;;;;;7.36;nan;101700.72;4996102;28;20040;-82
2023/02/03 08:41:17;;;;;;;6.70;3.30;;;;;;;7.35;nan;101697.25;4996545;28;20039;-82
2023/02/03 08:43:43;;;;;;;4.97;2.95;;;;;;;7.39;nan;101709.28;5002488;28;20026;-82
2023/02/03 08:46:10;;;;;;;5.13;2.70;;;;;;;7.40;nan;101699.59;5004430;28;20026;-83
2023/02/03 08:48:36;;;;;;;4.05;2.53;;;;;;;7.42;nan;101705.59;5003800;28;20564;-82
2023/02/03 08:51:01;;;;;;;3.55;2.50;;;;;;;7.42;nan;101703.81;5004558;28;20026;-82
2023/02/03 08:53:26;;;;;;;4.03;2.40;;;;;;;7.44;nan;101696.66;5004342;28;20050;-82
2023/02/03 08:55:52;;;;;;;4.07;2.53;;;;;;;7.43;nan;101680.97;5005140;28;20062;-83
2023/02/03 08:58:17;;;;;;;4.05;2.38;;;;;;;7.45;nan;101676.44;5007360;28;20033;-82
2023/02/03 09:00:42;;;;;;;6.47;2.80;;;;;;;7.50;nan;101691.91;5007736;28;20625;-82
2023/02/03 09:03:08;;;;;;;3.45;2.45;;;;;;;7.50;nan;101697.19;5003367;28;20037;-84
2023/02/03 09:05:33;;;;;;;4.53;2.95;;;;;;;7.53;nan;101692.56;4996641;28;20084;-81
2023/02/03 09:07:59;;;;;;;5.35;2.85;;;;;;;7.56;nan;101686.25;4996673;28;20030;-82
2023/02/03 09:10:24;;;;;;;4.50;2.70;;;;;;;7.58;nan;101686.97;4994449;28;20050;-82
2023/02/03 09:12:49;;;;;;;3.10;2.20;;;;;;;7.65;nan;101690.88;5002191;28;20034;-83
2023/02/03 09:15:15;;;;;;;5.90;2.30;;;;;;;7.72;nan;101684.25;5006473;28;20049;-83
2023/02/03 09:17:40;;;;;;;3.97;1.90;;;;;;;7.75;nan;101672.69;4998611;28;20030;-83
2023/02/03 09:20:06;;;;;;;3.53;2.20;;;;;;;7.84;nan;101675.53;4999869;28;20123;-83
2023/02/03 09:22:31;;;;;;;3.63;2.05;;;;;;;7.93;nan;101675.81;5009164;28;20041;-82
2023/02/03 09:24:56;;;;;;;3.65;2.28;;;;;;;8.02;nan;101675.19;4995699;28;20129;-82
2023/02/03 09:27:22;;;;;;;3.13;1.92;;;;;;;8.07;nan;101684.44;4994752;28;20045;-82
2023/02/03 09:29:47;;;;;;;4.20;2.13;;;;;;;8.09;nan;101687.00;5009788;28;20022;-83
2023/02/03 09:32:12;;;;;;;3.10;2.10;;;;;;;8.16;nan;101677.69;5003590;28;20050;-83
2023/02/03 09:34:40;;;;;;;3.00;1.75;;;;;;;8.22;nan;101679.91;5002442;28;20099;-83
2023/02/03 09:37:05;;;;;;;2.42;1.52;;;;;;;8.26;nan;101675.25;5005269;28;20030;-83
2023/02/03 09:39:31;;;;;;;2.30;1.42;;;;;;;8.29;nan;101667.13;5003523;28;20030;-82
2023/02/03 09:42:27;;;;;;;2.30;1.50;;;;;;;8.35;nan;101677.25;4998163;28;20506;-82
2023/02/03 09:45:03;;;;;;;2.92;1.50;;;;;;;8.41;nan;101679.47;4998109;28;20084;-83
2023/02/03 09:47:34;;;;;;;3.17;1.52;;;;;;;8.38;nan;101669.13;4993218;28;20034;-82
2023/02/03 09:50:03;;;;;;;2.67;1.40;;;;;;;8.42;nan;101669.78;4996374;28;20035;-82
2023/02/03 09:52:32;;;;;;;3.65;1.42;;;;;;;8.45;nan;101674.81;5002646;28;20034;-83
2023/02/03 09:55:15;;;;;;;1.80;1.27;;;;;;;8.59;nan;101671.22;4995790;28;20547;-84
2023/02/03 09:57:50;;;;;;;2.00;1.20;;;;;;;8.67;nan;101671.47;4996326;28;20177;-84
2023/02/03 10:00:22;;;;;;;2.33;1.23;;;;;;;8.68;nan;101679.28;4994970;28;20031;-83
2023/02/03 10:03:13;;;;;;;1.98;0.93;;;;;;;8.80;nan;101676.72;4995234;28;20031;-84
2023/02/03 10:06:02;;;;;;;3.00;1.48;;;;;;;8.79;nan;101680.28;4995228;28;20022;-84
2023/02/03 10:08:27;;;;;;;2.28;1.00;;;;;;;8.88;nan;101690.19;4986762;28;20564;-84
2023/02/03 10:11:10;;;;;;;2.43;1.03;;;;;;;8.88;nan;101706.00;5010310;28;20026;-85
2023/02/03 10:13:40;;;;;;;3.45;1.50;;;;;;;8.71;nan;101696.69;5001547;28;20033;-85
2023/02/03 10:16:20;;;;;;;3.17;1.30;;;;;;;8.65;nan;101682.16;5011152;28;20026;-85
2023/02/03 10:18:49;;;;;;;2.42;1.70;;;;;;;8.75;nan;101684.97;4994399;28;20031;-85
2023/02/03 10:21:34;;;;;;;2.83;1.40;;;;;;;8.92;nan;101683.72;4992383;28;20068;-85
2023/02/03 10:24:14;;;;;;;3.53;1.40;;;;;;;8.95;nan;101696.69;5006341;28;20042;-85
2023/02/03 10:26:41;;;;;;;2.42;1.40;;;;;;;8.93;nan;101686.25;4994582;28;20033;-85
2023/02/03 10:29:50;;;;;;;1.50;0.90;;;;;;;8.97;nan;101689.50;5003491;28;20034;-85
2023/02/03 10:32:16;;;;;;;2.75;1.20;;;;;;;9.00;nan;101694.56;4956616;28;20061;-85
2023/02/03 10:34:46;;;;;;;2.22;1.30;;;;;;;8.87;nan;101699.91;5013988;28;20040;-85
2023/02/03 10:37:30;;;;;;;1.90;1.27;;;;;;;8.99;nan;101687.59;5013672;28;20142;-85
2023/02/03 10:39:58;;;;;;;1.88;1.00;;;;;;;8.95;nan;101672.94;4994352;28;20035;-85
2023/02/03 10:42:24;;;;;;;3.22;1.20;;;;;;;8.97;nan;101662.28;5014180;28;20103;-84
2023/02/03 10:44:56;;;;;;;1.60;1.02;;;;;;;8.92;nan;101662.63;5014311;28;20117;-82
2023/02/03 10:47:38;;;;;;;2.90;1.45;;;;;;;8.94;nan;101658.09;4996509;28;20096;-82
2023/02/03 10:50:16;;;;;;;2.85;1.17;;;;;;;8.95;nan;101651.84;4993364;28;20053;-81
2023/02/03 10:52:42;;;;;;;2.78;1.30;;;;;;;8.89;nan;101647.88;4995086;28;20053;-82
2023/02/03 10:55:29;;;;;;;1.92;1.17;;;;;;;8.88;nan;101650.63;4994273;28;20050;-82
2023/02/03 10:57:56;;;;;;;1.75;1.05;;;;;;;8.90;nan;101646.06;5001234;28;20042;-82
2023/02/03 11:00:33;;;;;;;1.58;1.00;;;;;;;8.91;nan;101638.06;4997223;28;20083;-83
2023/02/03 11:03:22;;;;;;;1.88;1.10;;;;;;;8.95;nan;101641.28;4996624;28;20034;-82
2023/02/03 11:06:03;;;;;;;3.20;1.58;;;;;;;8.94;nan;101626.44;4992585;28;20030;-82
2023/02/03 11:08:30;;;;;;;2.88;1.50;;;;;;;8.89;nan;101625.91;4994101;28;20030;-82
2023/02/03 11:11:03;;;;;;;2.88;1.45;;;;;;;8.87;nan;101625.22;4995076;28;20026;-82
2023/02/03 11:13:29;;;;;;;3.13;1.38;;;;;;;8.89;nan;101636.47;4992898;28;20471;-82
2023/02/03 11:16:14;;;;;;;1.77;1.30;;;;;;;8.90;nan;101630.25;4990488;28;20033;-82
2023/02/03 11:18:50;;;;;;;2.00;1.20;;;;;;;8.96;nan;101624.50;4991835;28;20121;-86
2023/02/03 11:21:20;;;;;;;1.35;0.90;;;;;;;8.95;nan;101616.72;5004349;28;20110;-83
2023/02/03 11:23:57;;;;;;;3.25;1.95;;;;;;;8.92;nan;101628.34;4999564;28;20037;-84
2023/02/03 11:26:34;;;;;;;3.50;1.88;;;;;;;8.90;nan;101628.44;4998414;28;20445;-83
2023/02/03 11:29:04;;;;;;;2.97;1.90;;;;;;;8.91;nan;101632.78;4994539;28;20109;-87
2023/02/03 11:31:32;;;;;;;2.88;1.70;;;;;;;8.91;nan;101634.56;5001995;28;20105;-87
2023/02/03 11:34:16;;;;;;;9.77;5.57;;;;;;;8.70;nan;101645.75;5009678;28;20058;-86
2023/02/03 11:36:42;;;;;;;8.40;4.60;;;;;;;8.64;nan;101640.06;5014132;28;20031;-87
2023/02/03 11:39:34;;;;;;;4.82;2.83;;;;;;;8.69;nan;101649.31;5004126;28;20048;-84
2023/02/03 11:42:00;;;;;;;3.03;1.58;;;;;;;8.68;nan;101655.56;4990160;28;20041;-83
2023/02/03 11:44:30;;;;;;;2.40;1.33;;;;;;;8.70;nan;101660.72;4997019;28;20393;-83
2023/02/03 11:47:10;;;;;;;3.33;1.08;;;;;;;8.67;nan;101655.66;4997484;28;20106;-83
2023/02/03 11:49:59;;;;;;;1.80;1.20;;;;;;;8.68;nan;101658.19;5007773;28;20104;-83
2023/02/03 11:52:44;;;;;;;3.00;1.20;;;;;;;8.65;nan;101642.59;5000958;28;25380;-83
2023/02/03 11:55:31;;;;;;;2.05;1.10;;;;;;;8.71;nan;101639.50;4996308;28;20046;-84
2023/02/03 11:58:23;;;;;;;2.40;1.20;;;;;;;8.76;nan;101638.34;4995814;28;20073;-85
2023/02/03 12:01:09;;;;;;;;;;;;;;;8.63;nan;101630.50;4997115;28;20561;-84
2023/02/03 12:03:58;;;;;;;2.95;1.20;;;;;;;8.56;nan;101623.97;4995522;28;20425;-82
2023/02/03 12:06:35;;;;;;;5.82;2.67;;;;;;;8.67;nan;101611.66;4998387;28;20034;-82